Video: Pasajera relata los momentos del accidente de Aeromexico Connect

Luego del accidente ocurrido la tarde de este 31 de julio al Embraer 190AR matrícula XA-GAL de la aerolínea Aeroméxico Connect, una sobreviviente de nombre Jaqueline Glifres, relató la experiencia durante y posterior al impacto de la aeronave, donde 97 pasajeros y 4 miembros de la tripulación salieron con vida.

Según el testimonio recogido por la redacción del “El Sol de Durango”, y compartido a este medio de comunicación, se puede escuchar que la pasajera, aseguró que el Cuerpo de Rescate y Extinción de Incendios (CREI), del Aeropuerto Internacional Guadalupe Victoria en Durango, tardaron unos 20 minutos en llegar al avión para sofocar las llamas. Algunos medios indican que la aeronave impactó poco menos de 1 kilómetro de las inmediaciones del aeropuerto.

Además, dice que el impacto ocurrió tan pronto como despegaron de la pista 21 en medio de una “tormenta”. Lo que no hace sentido con el reporte METAR de la estación (Aeropuerto), emitido momentos después del accidente, y que el personal de Servicios a la Navegación en el Espacio Aéreo Mexicano (SENEAM), son los encargados de emitir tales reportes.

En el video circulado en redes sociales, se puede observar restos del avión sobre la pista del Aeropuerto de Durango, como parte de la turbina y secciones que podrían ser parte del tren de aterrizaje.

Reporte METAR:

MMDO 311544Z 30006KT 10SM SCT200 20/13 A3030 RMK 8/001 HZY
MMDO 311646Z 00000KT 10SM SCT200 22/13 A3030 RMK 8/001 HZY
MMDO 311741Z 36007KT 12SM FEW025 SCT200 25/12 A3029 RMK SLP112 57004 903 8/101 HZY
MMDO 311844Z 12003KT 12SM BKN025TCU BKN200 26/11 A3026 RMK 8/201 ISOL CB
MMDO 311941Z 01005KT 10SM BKN025CB 28/10 A3023 RMK 8/300
MMDO 312103Z RTD 28007KT 7SM OVC015CB 17/14 A3024 RMK SLP118 57014 956 8/9// PISTA CERRADA POR ACFT ACCIDENTADA BINOVC
MMDO 312150Z 12007KT 10SM BKN020CB BKN025 OVC200 22/14 A3023 RMK 8/903 BINOVC
MMDO 312248Z 15006KT 10SM BKN020CB OVC200 24/11 A3020 RMK 8/903 TS PCPN E BINOVC
MMDO 312347Z 06014KT 6SM SCT015 BKN020CB OVC200 20/15 A3024 RMK SLP118 54000 920 60155 8/903 TS 1QUAD
MMDO 010047Z 24004KT 10SM BKN020CB OVC200 20/15 A3019 RMK 60215 8/903 BINOVC LWR CU
MMDO 010146Z 24004KT 10SM BKN020CB OVC200 19/16 A3021 RMK 8/903 LWR CU ISOL AC BINOVC

Deja tu comentario.

También te podría gustar...

PHP Code Snippets Powered By : XYZScripts.com